sensor_id;sensor_type;location;lat;lon;timestamp;temperature;humidity
45409;DHT22;31162;51.076;3.784;2023-02-17T00:00:55;11.90;99.90
45409;DHT22;31162;51.076;3.784;2023-02-17T00:03:21;11.90;99.90
45409;DHT22;31162;51.076;3.784;2023-02-17T00:05:47;11.80;99.90
45409;DHT22;31162;51.076;3.784;2023-02-17T00:08:13;11.70;99.90
45409;DHT22;31162;51.076;3.784;2023-02-17T00:10:38;11.70;99.90
45409;DHT22;31162;51.076;3.784;2023-02-17T00:13:04;11.70;99.90
45409;DHT22;31162;51.076;3.784;2023-02-17T00:15:30;11.70;99.90
45409;DHT22;31162;51.076;3.784;2023-02-17T00:17:56;11.70;99.90
45409;DHT22;31162;51.076;3.784;2023-02-17T00:20:21;11.70;99.90
45409;DHT22;31162;51.076;3.784;2023-02-17T00:22:47;11.70;99.90
45409;DHT22;31162;51.076;3.784;2023-02-17T00:25:12;11.70;99.90
45409;DHT22;31162;51.076;3.784;2023-02-17T00:27:38;11.70;99.90
45409;DHT22;31162;51.076;3.784;2023-02-17T00:30:04;11.70;99.90
45409;DHT22;31162;51.076;3.784;2023-02-17T00:32:30;11.60;99.90
45409;DHT22;31162;51.076;3.784;2023-02-17T00:34:56;11.60;99.90
45409;DHT22;31162;51.076;3.784;2023-02-17T00:37:24;11.70;99.90
45409;DHT22;31162;51.076;3.784;2023-02-17T00:39:49;11.70;99.90
45409;DHT22;31162;51.076;3.784;2023-02-17T00:42:15;11.80;99.90
45409;DHT22;31162;51.076;3.784;2023-02-17T00:44:41;11.90;99.90
45409;DHT22;31162;51.076;3.784;2023-02-17T00:47:07;11.80;99.90
45409;DHT22;31162;51.076;3.784;2023-02-17T00:49:32;11.70;99.90
45409;DHT22;31162;51.076;3.784;2023-02-17T00:51:59;11.60;99.90
45409;DHT22;31162;51.076;3.784;2023-02-17T00:54:26;11.70;99.90
45409;DHT22;31162;51.076;3.784;2023-02-17T00:56:52;11.70;99.90
45409;DHT22;31162;51.076;3.784;2023-02-17T00:59:18;11.70;99.90
45409;DHT22;31162;51.076;3.784;2023-02-17T01:01:44;11.70;99.90
45409;DHT22;31162;51.076;3.784;2023-02-17T01:04:10;11.80;99.90
45409;DHT22;31162;51.076;3.784;2023-02-17T01:06:37;11.70;99.90
45409;DHT22;31162;51.076;3.784;2023-02-17T01:09:05;11.60;99.90
45409;DHT22;31162;51.076;3.784;2023-02-17T01:11:33;11.60;99.90
45409;DHT22;31162;51.076;3.784;2023-02-17T01:14:00;11.60;99.90
45409;DHT22;31162;51.076;3.784;2023-02-17T01:16:29;11.60;99.90
45409;DHT22;31162;51.076;3.784;2023-02-17T01:19:00;11.60;99.90
45409;DHT22;31162;51.076;3.784;2023-02-17T01:21:27;11.60;99.90
45409;DHT22;31162;51.076;3.784;2023-02-17T01:23:55;11.60;99.90
45409;DHT22;31162;51.076;3.784;2023-02-17T01:26:24;11.70;99.90
45409;DHT22;31162;51.076;3.784;2023-02-17T01:28:51;11.70;99.90
45409;DHT22;31162;51.076;3.784;2023-02-17T01:31:18;11.80;99.90
45409;DHT22;31162;51.076;3.784;2023-02-17T01:33:44;11.70;99.90
45409;DHT22;31162;51.076;3.784;2023-02-17T01:36:12;11.70;99.90
45409;DHT22;31162;51.076;3.784;2023-02-17T01:38:38;11.70;99.90
45409;DHT22;31162;51.076;3.784;2023-02-17T01:41:04;11.70;99.90
45409;DHT22;31162;51.076;3.784;2023-02-17T01:43:31;11.60;99.90
45409;DHT22;31162;51.076;3.784;2023-02-17T01:45:59;11.60;99.90
45409;DHT22;31162;51.076;3.784;2023-02-17T01:48:48;11.60;99.90
45409;DHT22;31162;51.076;3.784;2023-02-17T01:51:17;11.60;99.90
45409;DHT22;31162;51.076;3.784;2023-02-17T01:54:12;11.70;99.90
45409;DHT22;31162;51.076;3.784;2023-02-17T01:56:42;11.70;99.90
45409;DHT22;31162;51.076;3.784;2023-02-17T01:59:19;11.70;99.90
45409;DHT22;31162;51.076;3.784;2023-02-17T02:01:46;11.60;99.90
45409;DHT22;31162;51.076;3.784;2023-02-17T02:04:14;11.60;99.90
45409;DHT22;31162;51.076;3.784;2023-02-17T02:06:43;11.60;99.90
45409;DHT22;31162;51.076;3.784;2023-02-17T02:09:21;11.50;99.90
45409;DHT22;31162;51.076;3.784;2023-02-17T02:11:49;11.50;99.90
45409;DHT22;31162;51.076;3.784;2023-02-17T02:14:17;11.40;99.90
45409;DHT22;31162;51.076;3.784;2023-02-17T02:22:51;11.40;99.90
45409;DHT22;31162;51.076;3.784;2023-02-17T02:34:22;11.30;99.90
45409;DHT22;31162;51.076;3.784;2023-02-17T02:37:13;11.30;99.90
45409;DHT22;31162;51.076;3.784;2023-02-17T02:39:41;11.30;99.90
45409;DHT22;31162;51.076;3.784;2023-02-17T02:42:12;11.30;99.90
45409;DHT22;31162;51.076;3.784;2023-02-17T02:44:39;11.20;99.90
45409;DHT22;31162;51.076;3.784;2023-02-17T02:50:13;11.00;99.90
45409;DHT22;31162;51.076;3.784;2023-02-17T03:01:05;11.20;99.90
45409;DHT22;31162;51.076;3.784;2023-02-17T03:06:34;11.20;99.90
45409;DHT22;31162;51.076;3.784;2023-02-17T03:09:10;11.20;99.90
45409;DHT22;31162;51.076;3.784;2023-02-17T03:11:38;11.20;99.90
45409;DHT22;31162;51.076;3.784;2023-02-17T03:14:10;11.20;99.90
45409;DHT22;31162;51.076;3.784;2023-02-17T03:16:37;11.10;99.90
45409;DHT22;31162;51.076;3.784;2023-02-17T03:19:04;11.10;99.90
45409;DHT22;31162;51.076;3.784;2023-02-17T03:21:38;11.10;99.90
45409;DHT22;31162;51.076;3.784;2023-02-17T03:24:04;11.10;99.90
45409;DHT22;31162;51.076;3.784;2023-02-17T03:26:30;11.10;99.90
45409;DHT22;31162;51.076;3.784;2023-02-17T03:28:56;11.10;99.90
45409;DHT22;31162;51.076;3.784;2023-02-17T03:31:22;11.20;99.90
45409;DHT22;31162;51.076;3.784;2023-02-17T03:33:48;11.30;99.90
45409;DHT22;31162;51.076;3.784;2023-02-17T03:36:13;11.20;99.90
45409;DHT22;31162;51.076;3.784;2023-02-17T03:38:39;11.30;99.90
45409;DHT22;31162;51.076;3.784;2023-02-17T03:41:05;11.20;99.90
45409;DHT22;31162;51.076;3.784;2023-02-17T03:43:30;11.20;99.90
45409;DHT22;31162;51.076;3.784;2023-02-17T03:45:56;11.20;99.90
45409;DHT22;31162;51.076;3.784;2023-02-17T03:48:22;11.20;99.90
45409;DHT22;31162;51.076;3.784;2023-02-17T03:50:47;11.30;99.90
45409;DHT22;31162;51.076;3.784;2023-02-17T03:53:13;11.30;99.90
45409;DHT22;31162;51.076;3.784;2023-02-17T03:55:39;11.20;99.90
45409;DHT22;31162;51.076;3.784;2023-02-17T03:58:04;11.30;99.90
45409;DHT22;31162;51.076;3.784;2023-02-17T04:00:30;11.30;99.90
45409;DHT22;31162;51.076;3.784;2023-02-17T04:02:56;11.30;99.90
45409;DHT22;31162;51.076;3.784;2023-02-17T04:05:22;11.20;99.90
45409;DHT22;31162;51.076;3.784;2023-02-17T04:07:48;11.20;99.90
45409;DHT22;31162;51.076;3.784;2023-02-17T04:10:15;11.20;99.90
45409;DHT22;31162;51.076;3.784;2023-02-17T04:12:40;11.10;99.90
45409;DHT22;31162;51.076;3.784;2023-02-17T04:15:06;11.20;99.90
45409;DHT22;31162;51.076;3.784;2023-02-17T04:17:34;11.10;99.90
45409;DHT22;31162;51.076;3.784;2023-02-17T04:20:00;11.10;99.90
45409;DHT22;31162;51.076;3.784;2023-02-17T04:22:26;11.00;99.90
45409;DHT22;31162;51.076;3.784;2023-02-17T04:24:51;11.00;99.90
45409;DHT22;31162;51.076;3.784;2023-02-17T04:27:17;11.00;99.90
45409;DHT22;31162;51.076;3.784;2023-02-17T04:29:42;11.10;99.90
45409;DHT22;31162;51.076;3.784;2023-02-17T04:32:08;11.10;99.90
45409;DHT22;31162;51.076;3.784;2023-02-17T04:34:34;11.20;99.90
45409;DHT22;31162;51.076;3.784;2023-02-17T04:36:59;11.20;99.90
45409;DHT22;31162;51.076;3.784;2023-02-17T04:39:25;11.20;99.90
45409;DHT22;31162;51.076;3.784;2023-02-17T04:41:50;11.20;99.90
45409;DHT22;31162;51.076;3.784;2023-02-17T04:44:16;11.20;99.90
45409;DHT22;31162;51.076;3.784;2023-02-17T04:46:42;11.20;99.90
45409;DHT22;31162;51.076;3.784;2023-02-17T04:49:07;11.10;99.90
45409;DHT22;31162;51.076;3.784;2023-02-17T04:51:33;11.10;99.90
45409;DHT22;31162;51.076;3.784;2023-02-17T04:53:59;11.30;99.90
45409;DHT22;31162;51.076;3.784;2023-02-17T04:56:24;11.30;99.90
45409;DHT22;31162;51.076;3.784;2023-02-17T04:58:50;11.20;99.90
45409;DHT22;31162;51.076;3.784;2023-02-17T05:01:16;11.10;99.90
45409;DHT22;31162;51.076;3.784;2023-02-17T05:03:41;11.00;99.90
45409;DHT22;31162;51.076;3.784;2023-02-17T05:06:07;10.90;99.90
45409;DHT22;31162;51.076;3.784;2023-02-17T05:08:33;11.00;99.90
45409;DHT22;31162;51.076;3.784;2023-02-17T05:10:58;11.00;99.90
45409;DHT22;31162;51.076;3.784;2023-02-17T05:13:24;11.00;99.90
45409;DHT22;31162;51.076;3.784;2023-02-17T05:15:51;11.00;99.90
45409;DHT22;31162;51.076;3.784;2023-02-17T05:18:17;11.00;99.90
45409;DHT22;31162;51.076;3.784;2023-02-17T05:20:43;10.90;99.90
45409;DHT22;31162;51.076;3.784;2023-02-17T05:23:08;10.90;99.90
45409;DHT22;31162;51.076;3.784;2023-02-17T05:25:34;11.00;99.90
45409;DHT22;31162;51.076;3.784;2023-02-17T05:28:00;11.00;99.90
45409;DHT22;31162;51.076;3.784;2023-02-17T05:30:26;11.00;99.90
45409;DHT22;31162;51.076;3.784;2023-02-17T05:32:51;11.00;99.90
45409;DHT22;31162;51.076;3.784;2023-02-17T05:35:17;11.00;99.90
45409;DHT22;31162;51.076;3.784;2023-02-17T05:37:43;10.90;99.90
45409;DHT22;31162;51.076;3.784;2023-02-17T05:40:08;11.00;99.90
45409;DHT22;31162;51.076;3.784;2023-02-17T05:42:34;11.00;99.90
45409;DHT22;31162;51.076;3.784;2023-02-17T05:45:00;10.90;99.90
45409;DHT22;31162;51.076;3.784;2023-02-17T05:47:26;11.00;99.90
45409;DHT22;31162;51.076;3.784;2023-02-17T05:49:51;11.00;99.90
45409;DHT22;31162;51.076;3.784;2023-02-17T05:52:17;11.10;99.90
45409;DHT22;31162;51.076;3.784;2023-02-17T05:54:43;11.10;99.90
45409;DHT22;31162;51.076;3.784;2023-02-17T05:57:09;11.10;99.90
45409;DHT22;31162;51.076;3.784;2023-02-17T05:59:34;11.10;99.90
45409;DHT22;31162;51.076;3.784;2023-02-17T06:02:00;11.10;99.90
45409;DHT22;31162;51.076;3.784;2023-02-17T06:04:26;11.10;99.90
45409;DHT22;31162;51.076;3.784;2023-02-17T06:06:51;11.20;99.90
45409;DHT22;31162;51.076;3.784;2023-02-17T06:09:17;11.30;99.90
45409;DHT22;31162;51.076;3.784;2023-02-17T06:11:43;11.30;99.90
45409;DHT22;31162;51.076;3.784;2023-02-17T06:14:08;11.30;99.90
45409;DHT22;31162;51.076;3.784;2023-02-17T06:16:34;11.30;99.90
45409;DHT22;31162;51.076;3.784;2023-02-17T06:19:00;11.30;99.90
45409;DHT22;31162;51.076;3.784;2023-02-17T06:21:27;11.30;99.90
45409;DHT22;31162;51.076;3.784;2023-02-17T06:23:53;11.30;99.90
45409;DHT22;31162;51.076;3.784;2023-02-17T06:26:19;11.40;99.90
45409;DHT22;31162;51.076;3.784;2023-02-17T06:28:44;11.30;99.90
45409;DHT22;31162;51.076;3.784;2023-02-17T06:31:10;11.40;99.90
45409;DHT22;31162;51.076;3.784;2023-02-17T06:33:36;11.30;99.90
45409;DHT22;31162;51.076;3.784;2023-02-17T06:36:01;11.40;99.90
45409;DHT22;31162;51.076;3.784;2023-02-17T06:38:27;11.40;99.90
45409;DHT22;31162;51.076;3.784;2023-02-17T06:40:53;11.40;99.90
45409;DHT22;31162;51.076;3.784;2023-02-17T06:43:19;11.30;99.90
45409;DHT22;31162;51.076;3.784;2023-02-17T06:45:45;11.40;99.90
45409;DHT22;31162;51.076;3.784;2023-02-17T06:48:10;11.40;99.90
45409;DHT22;31162;51.076;3.784;2023-02-17T06:50:36;11.40;99.90
45409;DHT22;31162;51.076;3.784;2023-02-17T06:53:02;11.30;99.90
45409;DHT22;31162;51.076;3.784;2023-02-17T06:55:28;11.30;99.90
45409;DHT22;31162;51.076;3.784;2023-02-17T06:57:53;11.30;99.90
45409;DHT22;31162;51.076;3.784;2023-02-17T07:00:20;11.40;99.90
45409;DHT22;31162;51.076;3.784;2023-02-17T07:02:46;11.50;99.90
45409;DHT22;31162;51.076;3.784;2023-02-17T07:05:12;11.50;99.90
45409;DHT22;31162;51.076;3.784;2023-02-17T07:07:38;11.50;99.90
45409;DHT22;31162;51.076;3.784;2023-02-17T07:10:04;11.40;99.90
45409;DHT22;31162;51.076;3.784;2023-02-17T07:12:30;11.50;99.90
45409;DHT22;31162;51.076;3.784;2023-02-17T07:14:55;11.50;99.90
45409;DHT22;31162;51.076;3.784;2023-02-17T07:17:21;11.40;99.90
45409;DHT22;31162;51.076;3.784;2023-02-17T07:19:47;11.50;99.90
45409;DHT22;31162;51.076;3.784;2023-02-17T07:22:12;11.50;99.90
45409;DHT22;31162;51.076;3.784;2023-02-17T07:24:38;11.50;99.90
45409;DHT22;31162;51.076;3.784;2023-02-17T07:27:05;11.50;99.90
45409;DHT22;31162;51.076;3.784;2023-02-17T07:29:31;11.50;99.90
45409;DHT22;31162;51.076;3.784;2023-02-17T07:31:56;11.50;99.90
45409;DHT22;31162;51.076;3.784;2023-02-17T07:34:23;11.50;99.90
45409;DHT22;31162;51.076;3.784;2023-02-17T07:36:49;11.50;99.90
45409;DHT22;31162;51.076;3.784;2023-02-17T07:39:15;11.50;99.90
45409;DHT22;31162;51.076;3.784;2023-02-17T07:41:40;11.40;99.90
45409;DHT22;31162;51.076;3.784;2023-02-17T07:44:06;11.50;99.90
45409;DHT22;31162;51.076;3.784;2023-02-17T07:46:32;11.60;99.90
45409;DHT22;31162;51.076;3.784;2023-02-17T07:48:58;11.60;99.90
45409;DHT22;31162;51.076;3.784;2023-02-17T07:51:24;11.60;99.90
45409;DHT22;31162;51.076;3.784;2023-02-17T07:53:50;11.60;99.90
45409;DHT22;31162;51.076;3.784;2023-02-17T07:56:18;11.70;99.90
45409;DHT22;31162;51.076;3.784;2023-02-17T07:58:44;11.80;99.90
45409;DHT22;31162;51.076;3.784;2023-02-17T08:01:13;11.80;99.90
45409;DHT22;31162;51.076;3.784;2023-02-17T08:03:39;11.90;99.90
45409;DHT22;31162;51.076;3.784;2023-02-17T08:06:10;12.00;99.90
45409;DHT22;31162;51.076;3.784;2023-02-17T08:08:36;12.00;99.90
45409;DHT22;31162;51.076;3.784;2023-02-17T08:11:20;11.90;99.90
45409;DHT22;31162;51.076;3.784;2023-02-17T08:14:04;11.80;99.90
45409;DHT22;31162;51.076;3.784;2023-02-17T08:16:30;11.80;99.90
45409;DHT22;31162;51.076;3.784;2023-02-17T08:18:56;11.90;99.90
45409;DHT22;31162;51.076;3.784;2023-02-17T08:21:23;11.90;99.90
45409;DHT22;31162;51.076;3.784;2023-02-17T08:23:48;11.90;99.90
45409;DHT22;31162;51.076;3.784;2023-02-17T08:26:14;11.90;99.90
45409;DHT22;31162;51.076;3.784;2023-02-17T08:28:42;11.90;99.90
45409;DHT22;31162;51.076;3.784;2023-02-17T08:33:44;12.00;99.90
45409;DHT22;31162;51.076;3.784;2023-02-17T08:36:10;12.00;99.90
45409;DHT22;31162;51.076;3.784;2023-02-17T08:38:37;12.10;99.90
45409;DHT22;31162;51.076;3.784;2023-02-17T08:41:11;12.00;99.90
45409;DHT22;31162;51.076;3.784;2023-02-17T08:43:37;12.10;99.90
45409;DHT22;31162;51.076;3.784;2023-02-17T08:46:07;12.10;99.90
45409;DHT22;31162;51.076;3.784;2023-02-17T08:48:33;12.10;99.90
45409;DHT22;31162;51.076;3.784;2023-02-17T08:50:58;12.10;99.90
45409;DHT22;31162;51.076;3.784;2023-02-17T08:53:24;12.20;99.90
45409;DHT22;31162;51.076;3.784;2023-02-17T08:55:50;12.30;99.90
45409;DHT22;31162;51.076;3.784;2023-02-17T08:58:16;12.40;99.90
45409;DHT22;31162;51.076;3.784;2023-02-17T09:00:42;12.50;99.90
45409;DHT22;31162;51.076;3.784;2023-02-17T09:03:07;12.50;99.90
45409;DHT22;31162;51.076;3.784;2023-02-17T09:05:34;12.60;99.90
45409;DHT22;31162;51.076;3.784;2023-02-17T09:08:00;12.80;99.90
45409;DHT22;31162;51.076;3.784;2023-02-17T09:10:26;13.00;99.90
45409;DHT22;31162;51.076;3.784;2023-02-17T09:12:52;13.30;99.90
45409;DHT22;31162;51.076;3.784;2023-02-17T09:15:18;13.60;99.90
45409;DHT22;31162;51.076;3.784;2023-02-17T09:17:43;13.80;99.90
45409;DHT22;31162;51.076;3.784;2023-02-17T09:20:10;13.70;99.90
45409;DHT22;31162;51.076;3.784;2023-02-17T09:22:37;13.70;99.90
45409;DHT22;31162;51.076;3.784;2023-02-17T09:25:04;13.60;99.90
45409;DHT22;31162;51.076;3.784;2023-02-17T09:27:30;13.90;99.90
45409;DHT22;31162;51.076;3.784;2023-02-17T09:29:56;14.00;99.90
45409;DHT22;31162;51.076;3.784;2023-02-17T09:32:22;13.60;99.90
45409;DHT22;31162;51.076;3.784;2023-02-17T09:34:48;13.40;99.90
45409;DHT22;31162;51.076;3.784;2023-02-17T09:37:18;13.50;99.90
45409;DHT22;31162;51.076;3.784;2023-02-17T09:39:45;13.60;99.90
45409;DHT22;31162;51.076;3.784;2023-02-17T09:42:20;13.50;99.90
45409;DHT22;31162;51.076;3.784;2023-02-17T09:44:57;13.40;99.90
45409;DHT22;31162;51.076;3.784;2023-02-17T09:47:50;13.30;99.90
45409;DHT22;31162;51.076;3.784;2023-02-17T09:50:21;13.40;99.90
45409;DHT22;31162;51.076;3.784;2023-02-17T09:53:15;13.30;99.90
45409;DHT22;31162;51.076;3.784;2023-02-17T09:55:48;13.30;99.90
45409;DHT22;31162;51.076;3.784;2023-02-17T09:58:31;13.30;99.90
45409;DHT22;31162;51.076;3.784;2023-02-17T10:01:05;13.30;99.90
45409;DHT22;31162;51.076;3.784;2023-02-17T10:03:45;13.10;99.90
45409;DHT22;31162;51.076;3.784;2023-02-17T10:06:17;13.10;99.90
45409;DHT22;31162;51.076;3.784;2023-02-17T10:14:04;13.40;99.90
45409;DHT22;31162;51.076;3.784;2023-02-17T10:16:40;13.40;99.90
45409;DHT22;31162;51.076;3.784;2023-02-17T10:19:19;13.40;99.90
45409;DHT22;31162;51.076;3.784;2023-02-17T10:21:50;13.70;99.90
45409;DHT22;31162;51.076;3.784;2023-02-17T10:24:20;13.80;99.90
45409;DHT22;31162;51.076;3.784;2023-02-17T10:37:58;14.10;99.90
45409;DHT22;31162;51.076;3.784;2023-02-17T10:40:25;14.20;99.90
45409;DHT22;31162;51.076;3.784;2023-02-17T10:42:56;14.30;99.90
45409;DHT22;31162;51.076;3.784;2023-02-17T10:48:15;14.20;99.90
45409;DHT22;31162;51.076;3.784;2023-02-17T10:50:42;14.10;99.90
45409;DHT22;31162;51.076;3.784;2023-02-17T10:53:22;14.30;99.90
45409;DHT22;31162;51.076;3.784;2023-02-17T10:56:12;14.20;99.90
45409;DHT22;31162;51.076;3.784;2023-02-17T10:58:44;14.10;99.90
45409;DHT22;31162;51.076;3.784;2023-02-17T11:01:12;14.10;99.90
45409;DHT22;31162;51.076;3.784;2023-02-17T11:03:39;14.10;99.90
45409;DHT22;31162;51.076;3.784;2023-02-17T11:06:21;14.20;99.90
45409;DHT22;31162;51.076;3.784;2023-02-17T11:09:04;14.10;99.90
45409;DHT22;31162;51.076;3.784;2023-02-17T11:11:34;14.00;99.90
45409;DHT22;31162;51.076;3.784;2023-02-17T11:14:20;13.80;99.90
45409;DHT22;31162;51.076;3.784;2023-02-17T11:16:53;13.50;99.90
45409;DHT22;31162;51.076;3.784;2023-02-17T11:19:34;13.20;99.90
45409;DHT22;31162;51.076;3.784;2023-02-17T11:22:02;13.30;99.90
45409;DHT22;31162;51.076;3.784;2023-02-17T11:24:30;13.50;99.90
45409;DHT22;31162;51.076;3.784;2023-02-17T11:26:59;13.60;99.90
45409;DHT22;31162;51.076;3.784;2023-02-17T11:29:25;13.50;99.90
45409;DHT22;31162;51.076;3.784;2023-02-17T11:32:06;13.30;99.90
45409;DHT22;31162;51.076;3.784;2023-02-17T11:34:34;13.50;99.90
45409;DHT22;31162;51.076;3.784;2023-02-17T11:39:46;13.50;99.90
45409;DHT22;31162;51.076;3.784;2023-02-17T11:42:16;13.50;99.90
45409;DHT22;31162;51.076;3.784;2023-02-17T11:44:45;13.50;99.90
45409;DHT22;31162;51.076;3.784;2023-02-17T12:09:42;13.80;99.90
45409;DHT22;31162;51.076;3.784;2023-02-17T12:17:56;13.70;99.90
45409;DHT22;31162;51.076;3.784;2023-02-17T12:20:44;13.90;99.90
45409;DHT22;31162;51.076;3.784;2023-02-17T12:34:03;14.40;99.90
45409;DHT22;31162;51.076;3.784;2023-02-17T12:36:33;14.50;99.90
45409;DHT22;31162;51.076;3.784;2023-02-17T12:42:22;14.30;99.90
45409;DHT22;31162;51.076;3.784;2023-02-17T12:44:58;14.50;99.90
45409;DHT22;31162;51.076;3.784;2023-02-17T12:47:42;14.40;99.90
45409;DHT22;31162;51.076;3.784;2023-02-17T12:50:23;14.30;99.90
45409;DHT22;31162;51.076;3.784;2023-02-17T12:52:55;14.40;99.90
45409;DHT22;31162;51.076;3.784;2023-02-17T12:55:53;14.30;99.90
45409;DHT22;31162;51.076;3.784;2023-02-17T12:58:26;14.10;99.90
45409;DHT22;31162;51.076;3.784;2023-02-17T13:01:09;14.00;99.90
45409;DHT22;31162;51.076;3.784;2023-02-17T13:03:38;14.10;99.90
45409;DHT22;31162;51.076;3.784;2023-02-17T13:08:42;14.60;99.90
45409;DHT22;31162;51.076;3.784;2023-02-17T13:11:13;14.50;99.90
45409;DHT22;31162;51.076;3.784;2023-02-17T13:13:49;14.30;99.90
45409;DHT22;31162;51.076;3.784;2023-02-17T13:16:15;14.20;99.90
45409;DHT22;31162;51.076;3.784;2023-02-17T13:18:43;14.20;99.90
45409;DHT22;31162;51.076;3.784;2023-02-17T13:29:05;14.50;99.90
45409;DHT22;31162;51.076;3.784;2023-02-17T13:31:50;14.50;99.90
45409;DHT22;31162;51.076;3.784;2023-02-17T13:34:28;14.80;99.90
45409;DHT22;31162;51.076;3.784;2023-02-17T13:36:54;15.00;99.90
45409;DHT22;31162;51.076;3.784;2023-02-17T13:41:59;15.10;99.90
45409;DHT22;31162;51.076;3.784;2023-02-17T13:44:29;14.90;99.90
45409;DHT22;31162;51.076;3.784;2023-02-17T13:47:01;14.90;99.90
45409;DHT22;31162;51.076;3.784;2023-02-17T13:49:29;14.90;99.90
45409;DHT22;31162;51.076;3.784;2023-02-17T13:52:07;15.00;99.90
45409;DHT22;31162;51.076;3.784;2023-02-17T13:54:33;14.90;99.90
45409;DHT22;31162;51.076;3.784;2023-02-17T13:56:58;14.80;99.90
45409;DHT22;31162;51.076;3.784;2023-02-17T13:59:25;14.70;99.90
45409;DHT22;31162;51.076;3.784;2023-02-17T14:01:52;14.90;99.90
45409;DHT22;31162;51.076;3.784;2023-02-17T14:04:25;14.90;99.90
45409;DHT22;31162;51.076;3.784;2023-02-17T14:06:51;14.70;99.90
45409;DHT22;31162;51.076;3.784;2023-02-17T14:09:30;14.60;99.90
45409;DHT22;31162;51.076;3.784;2023-02-17T14:11:57;14.50;99.90
45409;DHT22;31162;51.076;3.784;2023-02-17T14:14:32;14.50;99.90
45409;DHT22;31162;51.076;3.784;2023-02-17T14:17:03;14.60;99.90
45409;DHT22;31162;51.076;3.784;2023-02-17T14:19:40;14.50;99.90
45409;DHT22;31162;51.076;3.784;2023-02-17T14:22:06;14.40;99.90
45409;DHT22;31162;51.076;3.784;2023-02-17T14:24:37;14.20;99.90
45409;DHT22;31162;51.076;3.784;2023-02-17T14:27:05;14.20;99.90
45409;DHT22;31162;51.076;3.784;2023-02-17T14:29:47;14.30;99.90
45409;DHT22;31162;51.076;3.784;2023-02-17T14:32:26;14.30;99.90
45409;DHT22;31162;51.076;3.784;2023-02-17T14:34:52;14.30;99.90
45409;DHT22;31162;51.076;3.784;2023-02-17T14:37:22;14.30;99.90
45409;DHT22;31162;51.076;3.784;2023-02-17T14:39:49;14.20;99.90
45409;DHT22;31162;51.076;3.784;2023-02-17T14:42:14;14.20;99.90
45409;DHT22;31162;51.076;3.784;2023-02-17T14:44:40;14.00;99.90
45409;DHT22;31162;51.076;3.784;2023-02-17T14:47:07;14.10;99.90
45409;DHT22;31162;51.076;3.784;2023-02-17T14:49:33;13.80;99.90
45409;DHT22;31162;51.076;3.784;2023-02-17T14:51:59;13.70;99.90
45409;DHT22;31162;51.076;3.784;2023-02-17T14:54:27;13.60;99.90
45409;DHT22;31162;51.076;3.784;2023-02-17T14:57:05;13.50;99.90
45409;DHT22;31162;51.076;3.784;2023-02-17T14:59:31;13.60;99.90
45409;DHT22;31162;51.076;3.784;2023-02-17T15:01:57;13.60;99.90
45409;DHT22;31162;51.076;3.784;2023-02-17T15:04:23;13.50;99.90
45409;DHT22;31162;51.076;3.784;2023-02-17T15:06:50;13.50;99.90
45409;DHT22;31162;51.076;3.784;2023-02-17T15:09:22;13.50;99.90
45409;DHT22;31162;51.076;3.784;2023-02-17T15:11:51;13.60;99.90
45409;DHT22;31162;51.076;3.784;2023-02-17T15:14:19;13.60;99.90
45409;DHT22;31162;51.076;3.784;2023-02-17T15:16:46;13.60;99.90
45409;DHT22;31162;51.076;3.784;2023-02-17T15:19:13;13.60;99.90
45409;DHT22;31162;51.076;3.784;2023-02-17T15:21:45;13.60;99.90
45409;DHT22;31162;51.076;3.784;2023-02-17T15:24:22;13.70;99.90
45409;DHT22;31162;51.076;3.784;2023-02-17T15:26:48;13.70;99.90
45409;DHT22;31162;51.076;3.784;2023-02-17T15:29:18;13.70;99.90
45409;DHT22;31162;51.076;3.784;2023-02-17T15:31:45;13.60;99.90
45409;DHT22;31162;51.076;3.784;2023-02-17T15:34:16;13.60;99.90
45409;DHT22;31162;51.076;3.784;2023-02-17T15:36:42;13.50;99.90
45409;DHT22;31162;51.076;3.784;2023-02-17T15:39:14;13.50;99.90
45409;DHT22;31162;51.076;3.784;2023-02-17T15:41:41;13.50;99.90
45409;DHT22;31162;51.076;3.784;2023-02-17T15:44:25;13.50;99.90
45409;DHT22;31162;51.076;3.784;2023-02-17T15:46:52;13.50;99.90
45409;DHT22;31162;51.076;3.784;2023-02-17T15:49:19;13.50;99.90
45409;DHT22;31162;51.076;3.784;2023-02-17T15:51:45;13.40;99.90
45409;DHT22;31162;51.076;3.784;2023-02-17T15:54:11;13.30;99.90
45409;DHT22;31162;51.076;3.784;2023-02-17T15:56:47;13.30;99.90
45409;DHT22;31162;51.076;3.784;2023-02-17T15:59:24;13.30;99.90
45409;DHT22;31162;51.076;3.784;2023-02-17T16:01:52;13.30;99.90
45409;DHT22;31162;51.076;3.784;2023-02-17T16:04:20;13.20;99.90
45409;DHT22;31162;51.076;3.784;2023-02-17T16:06:46;13.30;99.90
45409;DHT22;31162;51.076;3.784;2023-02-17T16:09:12;13.20;99.90
45409;DHT22;31162;51.076;3.784;2023-02-17T16:11:51;13.20;99.90
45409;DHT22;31162;51.076;3.784;2023-02-17T16:14:25;13.20;99.90
45409;DHT22;31162;51.076;3.784;2023-02-17T16:16:53;13.20;99.90
45409;DHT22;31162;51.076;3.784;2023-02-17T16:19:19;13.10;99.90
45409;DHT22;31162;51.076;3.784;2023-02-17T16:21:45;13.10;99.90
45409;DHT22;31162;51.076;3.784;2023-02-17T16:24:11;13.00;99.90
45409;DHT22;31162;51.076;3.784;2023-02-17T16:26:37;12.90;99.90
45409;DHT22;31162;51.076;3.784;2023-02-17T16:29:13;13.00;99.90
45409;DHT22;31162;51.076;3.784;2023-02-17T16:31:39;13.00;99.90
45409;DHT22;31162;51.076;3.784;2023-02-17T16:34:05;13.00;99.90
45409;DHT22;31162;51.076;3.784;2023-02-17T16:36:33;12.90;99.90
45409;DHT22;31162;51.076;3.784;2023-02-17T16:39:02;12.90;99.90
45409;DHT22;31162;51.076;3.784;2023-02-17T16:41:28;12.90;99.90
45409;DHT22;31162;51.076;3.784;2023-02-17T16:43:54;12.90;99.90
45409;DHT22;31162;51.076;3.784;2023-02-17T16:46:29;12.90;99.90
45409;DHT22;31162;51.076;3.784;2023-02-17T16:48:56;12.90;99.90
45409;DHT22;31162;51.076;3.784;2023-02-17T16:51:23;12.90;99.90
45409;DHT22;31162;51.076;3.784;2023-02-17T16:53:49;12.80;99.90
45409;DHT22;31162;51.076;3.784;2023-02-17T16:56:25;12.80;99.90
45409;DHT22;31162;51.076;3.784;2023-02-17T16:58:52;12.80;99.90
45409;DHT22;31162;51.076;3.784;2023-02-17T17:01:18;12.80;99.90
45409;DHT22;31162;51.076;3.784;2023-02-17T17:03:44;12.80;99.90
45409;DHT22;31162;51.076;3.784;2023-02-17T17:06:24;12.80;99.90
45409;DHT22;31162;51.076;3.784;2023-02-17T17:08:50;12.80;99.90
45409;DHT22;31162;51.076;3.784;2023-02-17T17:11:19;12.80;99.90
45409;DHT22;31162;51.076;3.784;2023-02-17T17:13:46;12.80;99.90
45409;DHT22;31162;51.076;3.784;2023-02-17T17:16:21;12.80;99.90
45409;DHT22;31162;51.076;3.784;2023-02-17T17:18:47;12.80;99.90
45409;DHT22;31162;51.076;3.784;2023-02-17T17:21:15;12.70;99.90
45409;DHT22;31162;51.076;3.784;2023-02-17T17:23:41;12.70;99.90
45409;DHT22;31162;51.076;3.784;2023-02-17T17:26:38;12.60;99.90
45409;DHT22;31162;51.076;3.784;2023-02-17T17:29:05;12.50;99.90